sensor_id;sensor_type;location;lat;lon;timestamp;temperature;humidity
26063;DHT22;13837;48.562;12.108;2022-10-10T05:06:15;6.30;99.90
26063;DHT22;13837;48.562;12.108;2022-10-10T05:08:40;6.80;99.90
26063;DHT22;13837;48.562;12.108;2022-10-10T05:11:06;7.30;99.90
26063;DHT22;13837;48.562;12.108;2022-10-10T07:08:07;8.60;99.90
26063;DHT22;13837;48.562;12.108;2022-10-10T07:10:33;8.70;99.90
26063;DHT22;13837;48.562;12.108;2022-10-10T07:12:59;8.70;99.90
26063;DHT22;13837;48.562;12.108;2022-10-10T07:15:24;8.90;99.90
26063;DHT22;13837;48.562;12.108;2022-10-10T07:17:57;9.00;99.90
26063;DHT22;13837;48.562;12.108;2022-10-10T07:20:23;9.20;99.90
26063;DHT22;13837;48.562;12.108;2022-10-10T07:22:49;9.50;99.90
26063;DHT22;13837;48.562;12.108;2022-10-10T07:25:15;9.40;99.90
26063;DHT22;13837;48.562;12.108;2022-10-10T07:27:41;9.50;99.90
26063;DHT22;13837;48.562;12.108;2022-10-10T07:30:07;9.80;99.90
26063;DHT22;13837;48.562;12.108;2022-10-10T07:32:33;10.00;99.90
26063;DHT22;13837;48.562;12.108;2022-10-10T07:34:59;10.10;99.90
26063;DHT22;13837;48.562;12.108;2022-10-10T07:37:25;10.30;99.90
26063;DHT22;13837;48.562;12.108;2022-10-10T07:39:54;10.30;99.90
26063;DHT22;13837;48.562;12.108;2022-10-10T07:42:20;10.40;99.90
26063;DHT22;13837;48.562;12.108;2022-10-10T07:44:46;10.50;99.90
26063;DHT22;13837;48.562;12.108;2022-10-10T07:47:11;10.50;99.90
26063;DHT22;13837;48.562;12.108;2022-10-10T07:49:37;10.50;99.90
26063;DHT22;13837;48.562;12.108;2022-10-10T07:52:03;10.60;99.90
26063;DHT22;13837;48.562;12.108;2022-10-10T07:54:29;10.60;99.90
26063;DHT22;13837;48.562;12.108;2022-10-10T07:56:56;10.60;99.90
26063;DHT22;13837;48.562;12.108;2022-10-10T07:59:22;10.60;99.90
26063;DHT22;13837;48.562;12.108;2022-10-10T08:01:49;10.70;99.90
26063;DHT22;13837;48.562;12.108;2022-10-10T08:04:15;10.70;99.90
26063;DHT22;13837;48.562;12.108;2022-10-10T08:06:41;10.70;99.90
26063;DHT22;13837;48.562;12.108;2022-10-10T08:09:06;10.70;99.90
26063;DHT22;13837;48.562;12.108;2022-10-10T08:11:32;10.50;99.90
26063;DHT22;13837;48.562;12.108;2022-10-10T08:13:58;10.50;99.90
26063;DHT22;13837;48.562;12.108;2022-10-10T08:16:23;10.50;99.90
26063;DHT22;13837;48.562;12.108;2022-10-10T08:18:49;10.50;99.90
26063;DHT22;13837;48.562;12.108;2022-10-10T08:21:15;10.60;99.90
26063;DHT22;13837;48.562;12.108;2022-10-10T08:23:41;10.60;99.90
26063;DHT22;13837;48.562;12.108;2022-10-10T08:26:09;10.40;99.90
26063;DHT22;13837;48.562;12.108;2022-10-10T08:28:36;10.50;99.90
26063;DHT22;13837;48.562;12.108;2022-10-10T08:31:07;10.70;99.90
26063;DHT22;13837;48.562;12.108;2022-10-10T08:33:34;10.80;99.90
26063;DHT22;13837;48.562;12.108;2022-10-10T08:36:08;10.80;99.90
26063;DHT22;13837;48.562;12.108;2022-10-10T08:38:35;10.90;99.90
26063;DHT22;13837;48.562;12.108;2022-10-10T08:41:12;11.00;99.90
26063;DHT22;13837;48.562;12.108;2022-10-10T08:46:49;10.50;99.90
26063;DHT22;13837;48.562;12.108;2022-10-10T08:49:38;10.80;99.90
26063;DHT22;13837;48.562;12.108;2022-10-10T08:54:48;11.10;99.90
26063;DHT22;13837;48.562;12.108;2022-10-10T08:57:28;11.40;99.90
26063;DHT22;13837;48.562;12.108;2022-10-10T09:00:05;11.40;99.90
26063;DHT22;13837;48.562;12.108;2022-10-10T09:02:38;11.40;99.90
26063;DHT22;13837;48.562;12.108;2022-10-10T09:05:13;11.40;99.90
26063;DHT22;13837;48.562;12.108;2022-10-10T09:10:26;11.70;99.90
26063;DHT22;13837;48.562;12.108;2022-10-10T09:13:20;11.80;99.90
26063;DHT22;13837;48.562;12.108;2022-10-10T09:21:21;12.40;99.90
26063;DHT22;13837;48.562;12.108;2022-10-10T09:23:50;12.30;99.90
26063;DHT22;13837;48.562;12.108;2022-10-10T09:26:22;12.40;99.90
26063;DHT22;13837;48.562;12.108;2022-10-10T09:34:20;12.90;99.90
26063;DHT22;13837;48.562;12.108;2022-10-10T09:36:49;12.80;99.90
26063;DHT22;13837;48.562;12.108;2022-10-10T09:41:59;13.30;99.90
26063;DHT22;13837;48.562;12.108;2022-10-10T09:44:25;13.50;99.90
26063;DHT22;13837;48.562;12.108;2022-10-10T09:46:52;13.70;99.90
26063;DHT22;13837;48.562;12.108;2022-10-10T09:49:18;13.30;99.90
26063;DHT22;13837;48.562;12.108;2022-10-10T09:51:46;13.70;99.90
26063;DHT22;13837;48.562;12.108;2022-10-10T09:54:14;14.00;99.90
26063;DHT22;13837;48.562;12.108;2022-10-10T09:56:55;14.00;99.90
26063;DHT22;13837;48.562;12.108;2022-10-10T09:59:44;14.10;99.90
26063;DHT22;13837;48.562;12.108;2022-10-10T10:04:39;15.40;99.90
26063;DHT22;13837;48.562;12.108;2022-10-10T10:07:30;15.60;99.90
26063;DHT22;13837;48.562;12.108;2022-10-10T10:10:23;15.90;99.90
26063;DHT22;13837;48.562;12.108;2022-10-10T10:12:50;16.50;99.90
26063;DHT22;13837;48.562;12.108;2022-10-10T10:17:42;18.90;99.90
26063;DHT22;13837;48.562;12.108;2022-10-10T10:20:34;19.10;99.90
26063;DHT22;13837;48.562;12.108;2022-10-10T10:23:00;19.60;99.90
26063;DHT22;13837;48.562;12.108;2022-10-10T10:30:38;21.10;99.90
26063;DHT22;13837;48.562;12.108;2022-10-10T10:41:54;21.90;99.90
26063;DHT22;13837;48.562;12.108;2022-10-10T10:44:32;22.20;99.90
26063;DHT22;13837;48.562;12.108;2022-10-10T10:49:51;23.10;99.90
26063;DHT22;13837;48.562;12.108;2022-10-10T10:52:31;22.90;99.90
26063;DHT22;13837;48.562;12.108;2022-10-10T10:55:08;23.00;99.90
26063;DHT22;13837;48.562;12.108;2022-10-10T10:57:53;23.40;99.90
26063;DHT22;13837;48.562;12.108;2022-10-10T11:00:20;22.70;99.90
26063;DHT22;13837;48.562;12.108;2022-10-10T11:17:12;22.60;99.90
26063;DHT22;13837;48.562;12.108;2022-10-10T11:19:40;22.90;99.90
26063;DHT22;13837;48.562;12.108;2022-10-10T11:22:16;23.30;99.90
26063;DHT22;13837;48.562;12.108;2022-10-10T11:24:58;23.20;99.90
26063;DHT22;13837;48.562;12.108;2022-10-10T11:27:31;22.90;99.90
26063;DHT22;13837;48.562;12.108;2022-10-10T11:32:49;22.30;99.90
26063;DHT22;13837;48.562;12.108;2022-10-10T11:35:46;22.30;99.90
26063;DHT22;13837;48.562;12.108;2022-10-10T11:38:23;22.10;99.90
26063;DHT22;13837;48.562;12.108;2022-10-10T11:46:18;22.40;99.90
26063;DHT22;13837;48.562;12.108;2022-10-10T11:52:28;22.70;99.90
26063;DHT22;13837;48.562;12.108;2022-10-10T11:55:05;22.90;99.90
26063;DHT22;13837;48.562;12.108;2022-10-10T12:00:47;22.80;99.90
26063;DHT22;13837;48.562;12.108;2022-10-10T12:03:14;22.70;99.90
26063;DHT22;13837;48.562;12.108;2022-10-10T12:05:46;23.10;99.90
26063;DHT22;13837;48.562;12.108;2022-10-10T12:08:24;22.90;99.90
26063;DHT22;13837;48.562;12.108;2022-10-10T12:11:18;23.10;99.90
26063;DHT22;13837;48.562;12.108;2022-10-10T12:13:45;23.20;99.90
26063;DHT22;13837;48.562;12.108;2022-10-10T12:16:24;23.90;99.90
26063;DHT22;13837;48.562;12.108;2022-10-10T12:18:51;24.40;99.90
26063;DHT22;13837;48.562;12.108;2022-10-10T12:21:23;24.40;99.90
26063;DHT22;13837;48.562;12.108;2022-10-10T12:24:12;24.30;99.90
26063;DHT22;13837;48.562;12.108;2022-10-10T12:29:43;24.30;99.90
26063;DHT22;13837;48.562;12.108;2022-10-10T12:32:26;24.10;99.90
26063;DHT22;13837;48.562;12.108;2022-10-10T12:34:58;24.30;99.90
26063;DHT22;13837;48.562;12.108;2022-10-10T12:42:38;23.10;99.90
26063;DHT22;13837;48.562;12.108;2022-10-10T12:50:35;21.60;99.90
26063;DHT22;13837;48.562;12.108;2022-10-10T12:53:16;21.50;99.90
26063;DHT22;13837;48.562;12.108;2022-10-10T12:58:22;21.00;99.90
26063;DHT22;13837;48.562;12.108;2022-10-10T13:00:49;20.80;99.90
26063;DHT22;13837;48.562;12.108;2022-10-10T13:03:38;20.50;99.90
26063;DHT22;13837;48.562;12.108;2022-10-10T13:08:54;20.40;99.90
26063;DHT22;13837;48.562;12.108;2022-10-10T13:11:21;20.30;99.90
26063;DHT22;13837;48.562;12.108;2022-10-10T13:13:49;20.20;99.90
26063;DHT22;13837;48.562;12.108;2022-10-10T13:16:21;19.90;99.90
26063;DHT22;13837;48.562;12.108;2022-10-10T13:18:58;19.80;99.90
26063;DHT22;13837;48.562;12.108;2022-10-10T13:24:02;19.60;99.90
26063;DHT22;13837;48.562;12.108;2022-10-10T13:26:29;19.60;99.90
26063;DHT22;13837;48.562;12.108;2022-10-10T13:28:58;19.60;99.90
26063;DHT22;13837;48.562;12.108;2022-10-10T13:31:30;19.50;99.90
26063;DHT22;13837;48.562;12.108;2022-10-10T13:34:05;19.40;99.90
26063;DHT22;13837;48.562;12.108;2022-10-10T13:36:32;19.40;99.90
26063;DHT22;13837;48.562;12.108;2022-10-10T13:38:59;19.30;99.90
26063;DHT22;13837;48.562;12.108;2022-10-10T13:41:26;19.10;99.90
26063;DHT22;13837;48.562;12.108;2022-10-10T13:43:52;19.20;99.90
26063;DHT22;13837;48.562;12.108;2022-10-10T13:46:30;19.00;99.90
26063;DHT22;13837;48.562;12.108;2022-10-10T13:48:56;19.00;99.90
26063;DHT22;13837;48.562;12.108;2022-10-10T13:51:42;18.70;99.90
26063;DHT22;13837;48.562;12.108;2022-10-10T13:54:38;18.60;99.90
26063;DHT22;13837;48.562;12.108;2022-10-10T13:57:05;18.60;99.90
26063;DHT22;13837;48.562;12.108;2022-10-10T13:59:35;18.50;99.90
26063;DHT22;13837;48.562;12.108;2022-10-10T14:02:02;18.50;99.90
26063;DHT22;13837;48.562;12.108;2022-10-10T14:04:44;18.40;99.90
26063;DHT22;13837;48.562;12.108;2022-10-10T14:07:13;18.30;99.90
26063;DHT22;13837;48.562;12.108;2022-10-10T14:09:44;18.30;99.90
26063;DHT22;13837;48.562;12.108;2022-10-10T14:12:23;18.30;99.90
26063;DHT22;13837;48.562;12.108;2022-10-10T14:14:52;18.20;99.90
26063;DHT22;13837;48.562;12.108;2022-10-10T14:17:18;18.20;99.90
26063;DHT22;13837;48.562;12.108;2022-10-10T14:19:45;18.20;99.90
26063;DHT22;13837;48.562;12.108;2022-10-10T14:22:11;18.10;99.90
26063;DHT22;13837;48.562;12.108;2022-10-10T14:24:37;18.10;99.90
26063;DHT22;13837;48.562;12.108;2022-10-10T14:27:24;17.90;99.90
26063;DHT22;13837;48.562;12.108;2022-10-10T14:29:53;17.90;99.90
26063;DHT22;13837;48.562;12.108;2022-10-10T14:32:23;17.90;99.90
26063;DHT22;13837;48.562;12.108;2022-10-10T14:34:57;17.90;99.90
26063;DHT22;13837;48.562;12.108;2022-10-10T14:37:25;17.80;99.90
26063;DHT22;13837;48.562;12.108;2022-10-10T14:39:53;17.70;99.90
26063;DHT22;13837;48.562;12.108;2022-10-10T14:42:21;17.70;99.90
26063;DHT22;13837;48.562;12.108;2022-10-10T14:44:47;17.50;99.90
26063;DHT22;13837;48.562;12.108;2022-10-10T14:47:17;17.50;99.90
26063;DHT22;13837;48.562;12.108;2022-10-10T14:49:44;17.40;99.90
26063;DHT22;13837;48.562;12.108;2022-10-10T14:52:10;17.40;99.90
26063;DHT22;13837;48.562;12.108;2022-10-10T14:54:35;17.30;99.90
26063;DHT22;13837;48.562;12.108;2022-10-10T14:57:01;17.30;99.90
26063;DHT22;13837;48.562;12.108;2022-10-10T14:59:27;17.30;99.90
26063;DHT22;13837;48.562;12.108;2022-10-10T15:01:53;17.30;99.90
26063;DHT22;13837;48.562;12.108;2022-10-10T15:04:19;17.20;99.90
26063;DHT22;13837;48.562;12.108;2022-10-10T15:06:45;17.20;99.90
26063;DHT22;13837;48.562;12.108;2022-10-10T15:09:11;17.10;99.90
26063;DHT22;13837;48.562;12.108;2022-10-10T15:11:37;17.10;99.90
26063;DHT22;13837;48.562;12.108;2022-10-10T15:14:03;17.00;99.90
26063;DHT22;13837;48.562;12.108;2022-10-10T15:16:29;17.00;99.90
26063;DHT22;13837;48.562;12.108;2022-10-10T15:18:55;16.90;99.90
26063;DHT22;13837;48.562;12.108;2022-10-10T15:21:24;16.80;99.90
26063;DHT22;13837;48.562;12.108;2022-10-10T15:24:31;16.70;99.90
26063;DHT22;13837;48.562;12.108;2022-10-10T15:27:16;16.70;99.90
26063;DHT22;13837;48.562;12.108;2022-10-10T15:29:42;16.60;99.90
26063;DHT22;13837;48.562;12.108;2022-10-10T15:32:09;16.60;99.90
26063;DHT22;13837;48.562;12.108;2022-10-10T15:34:49;16.60;99.90
26063;DHT22;13837;48.562;12.108;2022-10-10T15:37:32;16.60;99.90
26063;DHT22;13837;48.562;12.108;2022-10-10T15:40:01;16.50;99.90
26063;DHT22;13837;48.562;12.108;2022-10-10T15:42:27;16.40;99.90
26063;DHT22;13837;48.562;12.108;2022-10-10T15:44:55;16.40;99.90
26063;DHT22;13837;48.562;12.108;2022-10-10T15:47:21;16.30;99.90
26063;DHT22;13837;48.562;12.108;2022-10-10T15:49:48;16.20;99.90
26063;DHT22;13837;48.562;12.108;2022-10-10T15:52:14;16.10;99.90
26063;DHT22;13837;48.562;12.108;2022-10-10T15:54:42;16.00;99.90
26063;DHT22;13837;48.562;12.108;2022-10-10T15:57:08;15.90;99.90
26063;DHT22;13837;48.562;12.108;2022-10-10T15:59:34;15.80;99.90
26063;DHT22;13837;48.562;12.108;2022-10-10T16:02:00;15.80;99.90
26063;DHT22;13837;48.562;12.108;2022-10-10T16:04:26;15.70;99.90
26063;DHT22;13837;48.562;12.108;2022-10-10T16:06:52;15.60;99.90
26063;DHT22;13837;48.562;12.108;2022-10-10T16:09:18;15.60;99.90
26063;DHT22;13837;48.562;12.108;2022-10-10T16:11:44;15.50;99.90
26063;DHT22;13837;48.562;12.108;2022-10-10T16:14:10;15.40;99.90
26063;DHT22;13837;48.562;12.108;2022-10-10T16:16:36;15.30;99.90
26063;DHT22;13837;48.562;12.108;2022-10-10T16:19:01;15.30;99.90
26063;DHT22;13837;48.562;12.108;2022-10-10T16:21:27;15.20;99.90
26063;DHT22;13837;48.562;12.108;2022-10-10T16:23:54;15.20;99.90
26063;DHT22;13837;48.562;12.108;2022-10-10T16:26:25;15.10;99.90
26063;DHT22;13837;48.562;12.108;2022-10-10T16:28:54;15.10;99.90
26063;DHT22;13837;48.562;12.108;2022-10-10T16:31:20;15.00;99.90
26063;DHT22;13837;48.562;12.108;2022-10-10T16:33:47;15.00;99.90
26063;DHT22;13837;48.562;12.108;2022-10-10T16:36:18;15.00;99.90
26063;DHT22;13837;48.562;12.108;2022-10-10T16:38:45;14.90;99.90
26063;DHT22;13837;48.562;12.108;2022-10-10T16:41:13;14.90;99.90
26063;DHT22;13837;48.562;12.108;2022-10-10T16:43:41;14.80;99.90
26063;DHT22;13837;48.562;12.108;2022-10-10T16:46:09;14.80;99.90
26063;DHT22;13837;48.562;12.108;2022-10-10T16:48:37;14.80;99.90
26063;DHT22;13837;48.562;12.108;2022-10-10T16:51:06;14.80;99.90
26063;DHT22;13837;48.562;12.108;2022-10-10T16:53:33;14.70;99.90
26063;DHT22;13837;48.562;12.108;2022-10-10T16:56:01;14.70;99.90
26063;DHT22;13837;48.562;12.108;2022-10-10T16:58:28;14.70;99.90
26063;DHT22;13837;48.562;12.108;2022-10-10T17:00:54;14.60;99.90
26063;DHT22;13837;48.562;12.108;2022-10-10T17:03:21;14.60;99.90
26063;DHT22;13837;48.562;12.108;2022-10-10T17:05:47;14.60;99.90
26063;DHT22;13837;48.562;12.108;2022-10-10T17:08:12;14.60;99.90
26063;DHT22;13837;48.562;12.108;2022-10-10T17:10:39;14.50;99.90
26063;DHT22;13837;48.562;12.108;2022-10-10T17:13:04;14.50;99.90
26063;DHT22;13837;48.562;12.108;2022-10-10T17:15:30;14.50;99.90
26063;DHT22;13837;48.562;12.108;2022-10-10T17:17:56;14.50;99.90
26063;DHT22;13837;48.562;12.108;2022-10-10T17:20:21;14.50;99.90
26063;DHT22;13837;48.562;12.108;2022-10-10T17:22:47;14.40;99.90
26063;DHT22;13837;48.562;12.108;2022-10-10T17:25:13;14.50;99.90
26063;DHT22;13837;48.562;12.108;2022-10-10T17:27:39;14.40;99.90
26063;DHT22;13837;48.562;12.108;2022-10-10T17:30:08;14.40;99.90
26063;DHT22;13837;48.562;12.108;2022-10-10T17:32:39;14.50;99.90
26063;DHT22;13837;48.562;12.108;2022-10-10T17:35:06;14.40;99.90
26063;DHT22;13837;48.562;12.108;2022-10-10T17:37:32;14.40;99.90
26063;DHT22;13837;48.562;12.108;2022-10-10T17:39:58;14.40;99.90
26063;DHT22;13837;48.562;12.108;2022-10-10T17:42:23;14.30;99.90
26063;DHT22;13837;48.562;12.108;2022-10-10T17:44:49;14.30;99.90
26063;DHT22;13837;48.562;12.108;2022-10-10T17:47:18;14.20;99.90
26063;DHT22;13837;48.562;12.108;2022-10-10T17:49:44;14.20;99.90
26063;DHT22;13837;48.562;12.108;2022-10-10T17:52:11;14.20;99.90
26063;DHT22;13837;48.562;12.108;2022-10-10T17:54:37;14.20;99.90
26063;DHT22;13837;48.562;12.108;2022-10-10T17:57:03;14.10;99.90
26063;DHT22;13837;48.562;12.108;2022-10-10T17:59:29;14.10;99.90
26063;DHT22;13837;48.562;12.108;2022-10-10T18:01:56;14.10;99.90
26063;DHT22;13837;48.562;12.108;2022-10-10T18:04:22;14.10;99.90
26063;DHT22;13837;48.562;12.108;2022-10-10T18:06:47;14.10;99.90
26063;DHT22;13837;48.562;12.108;2022-10-10T18:09:13;14.10;99.90
26063;DHT22;13837;48.562;12.108;2022-10-10T18:11:39;14.10;99.90
26063;DHT22;13837;48.562;12.108;2022-10-10T18:14:04;14.10;99.90
26063;DHT22;13837;48.562;12.108;2022-10-10T18:16:35;14.10;99.90
26063;DHT22;13837;48.562;12.108;2022-10-10T18:19:07;14.00;99.90
26063;DHT22;13837;48.562;12.108;2022-10-10T18:21:33;14.00;99.90
26063;DHT22;13837;48.562;12.108;2022-10-10T18:23:59;13.90;99.90
26063;DHT22;13837;48.562;12.108;2022-10-10T18:26:27;13.90;99.90
26063;DHT22;13837;48.562;12.108;2022-10-10T18:28:54;13.90;99.90
26063;DHT22;13837;48.562;12.108;2022-10-10T18:31:23;13.90;99.90
26063;DHT22;13837;48.562;12.108;2022-10-10T18:33:49;13.80;99.90
26063;DHT22;13837;48.562;12.108;2022-10-10T18:36:17;13.80;99.90
26063;DHT22;13837;48.562;12.108;2022-10-10T18:38:43;13.80;99.90
26063;DHT22;13837;48.562;12.108;2022-10-10T18:41:16;13.80;99.90
26063;DHT22;13837;48.562;12.108;2022-10-10T18:43:42;13.70;99.90
26063;DHT22;13837;48.562;12.108;2022-10-10T18:46:11;13.70;99.90
26063;DHT22;13837;48.562;12.108;2022-10-10T18:48:37;13.70;99.90
26063;DHT22;13837;48.562;12.108;2022-10-10T18:51:06;13.60;99.90
26063;DHT22;13837;48.562;12.108;2022-10-10T18:53:37;13.60;99.90
26063;DHT22;13837;48.562;12.108;2022-10-10T18:56:04;13.50;99.90
26063;DHT22;13837;48.562;12.108;2022-10-10T18:58:31;13.50;99.90
26063;DHT22;13837;48.562;12.108;2022-10-10T19:01:04;13.40;99.90
26063;DHT22;13837;48.562;12.108;2022-10-10T19:03:31;13.30;99.90
26063;DHT22;13837;48.562;12.108;2022-10-10T19:05:57;13.20;99.90
26063;DHT22;13837;48.562;12.108;2022-10-10T19:08:23;13.10;99.90
26063;DHT22;13837;48.562;12.108;2022-10-10T19:10:49;13.00;99.90
26063;DHT22;13837;48.562;12.108;2022-10-10T19:13:16;12.90;99.90
26063;DHT22;13837;48.562;12.108;2022-10-10T19:15:42;12.80;99.90
26063;DHT22;13837;48.562;12.108;2022-10-10T19:18:08;12.80;99.90
26063;DHT22;13837;48.562;12.108;2022-10-10T19:20:35;12.80;99.90
26063;DHT22;13837;48.562;12.108;2022-10-10T19:23:03;12.80;99.90
26063;DHT22;13837;48.562;12.108;2022-10-10T19:25:29;12.70;99.90
26063;DHT22;13837;48.562;12.108;2022-10-10T19:27:56;12.70;99.90
26063;DHT22;13837;48.562;12.108;2022-10-10T19:30:22;12.70;99.90
26063;DHT22;13837;48.562;12.108;2022-10-10T19:32:48;12.60;99.90
26063;DHT22;13837;48.562;12.108;2022-10-10T19:35:17;12.50;99.90
26063;DHT22;13837;48.562;12.108;2022-10-10T19:37:42;12.50;99.90
26063;DHT22;13837;48.562;12.108;2022-10-10T19:40:09;12.30;99.90
26063;DHT22;13837;48.562;12.108;2022-10-10T19:42:35;12.20;99.90
26063;DHT22;13837;48.562;12.108;2022-10-10T19:45:01;12.10;99.90
26063;DHT22;13837;48.562;12.108;2022-10-10T19:47:26;12.00;99.90
26063;DHT22;13837;48.562;12.108;2022-10-10T19:49:52;11.90;99.90
26063;DHT22;13837;48.562;12.108;2022-10-10T19:52:18;11.80;99.90
26063;DHT22;13837;48.562;12.108;2022-10-10T19:54:44;11.80;99.90
26063;DHT22;13837;48.562;12.108;2022-10-10T19:57:09;11.70;99.90
26063;DHT22;13837;48.562;12.108;2022-10-10T19:59:35;11.60;99.90
26063;DHT22;13837;48.562;12.108;2022-10-10T20:02:01;11.60;99.90
26063;DHT22;13837;48.562;12.108;2022-10-10T20:04:27;11.50;99.90
26063;DHT22;13837;48.562;12.108;2022-10-10T20:06:52;11.50;99.90
26063;DHT22;13837;48.562;12.108;2022-10-10T20:09:18;11.40;99.90
26063;DHT22;13837;48.562;12.108;2022-10-10T20:11:44;11.30;99.90
26063;DHT22;13837;48.562;12.108;2022-10-10T20:14:09;11.30;99.90
26063;DHT22;13837;48.562;12.108;2022-10-10T20:16:35;11.20;99.90
26063;DHT22;13837;48.562;12.108;2022-10-10T20:19:01;11.20;99.90
26063;DHT22;13837;48.562;12.108;2022-10-10T20:21:32;11.10;99.90
26063;DHT22;13837;48.562;12.108;2022-10-10T20:24:01;11.10;99.90
26063;DHT22;13837;48.562;12.108;2022-10-10T20:26:27;11.10;99.90
26063;DHT22;13837;48.562;12.108;2022-10-10T20:28:53;11.10;99.90
26063;DHT22;13837;48.562;12.108;2022-10-10T20:31:34;11.20;99.90
26063;DHT22;13837;48.562;12.108;2022-10-10T20:34:12;11.20;99.90
26063;DHT22;13837;48.562;12.108;2022-10-10T20:36:38;11.20;99.90
26063;DHT22;13837;48.562;12.108;2022-10-10T20:39:10;11.10;99.90
26063;DHT22;13837;48.562;12.108;2022-10-10T20:41:37;11.10;99.90
26063;DHT22;13837;48.562;12.108;2022-10-10T20:44:05;11.10;99.90
26063;DHT22;13837;48.562;12.108;2022-10-10T20:46:33;11.10;99.90
26063;DHT22;13837;48.562;12.108;2022-10-10T20:49:01;11.10;99.90
26063;DHT22;13837;48.562;12.108;2022-10-10T20:51:28;11.00;99.90
26063;DHT22;13837;48.562;12.108;2022-10-10T20:53:58;11.00;99.90
26063;DHT22;13837;48.562;12.108;2022-10-10T20:56:26;10.90;99.90
26063;DHT22;13837;48.562;12.108;2022-10-10T20:58:54;10.80;99.90
26063;DHT22;13837;48.562;12.108;2022-10-10T21:01:23;10.80;99.90
26063;DHT22;13837;48.562;12.108;2022-10-10T21:03:49;10.70;99.90
26063;DHT22;13837;48.562;12.108;2022-10-10T21:06:19;10.60;99.90
26063;DHT22;13837;48.562;12.108;2022-10-10T21:08:47;10.60;99.90
26063;DHT22;13837;48.562;12.108;2022-10-10T21:11:14;10.60;99.90
26063;DHT22;13837;48.562;12.108;2022-10-10T21:13:44;10.60;99.90
26063;DHT22;13837;48.562;12.108;2022-10-10T21:16:11;10.60;99.90
26063;DHT22;13837;48.562;12.108;2022-10-10T21:18:37;10.50;99.90
26063;DHT22;13837;48.562;12.108;2022-10-10T21:21:04;10.40;99.90
26063;DHT22;13837;48.562;12.108;2022-10-10T21:23:33;10.30;99.90
26063;DHT22;13837;48.562;12.108;2022-10-10T21:26:08;10.20;99.90
26063;DHT22;13837;48.562;12.108;2022-10-10T21:28:35;10.20;99.90
26063;DHT22;13837;48.562;12.108;2022-10-10T21:31:02;10.10;99.90
26063;DHT22;13837;48.562;12.108;2022-10-10T21:33:28;10.00;99.90
26063;DHT22;13837;48.562;12.108;2022-10-10T21:35:55;10.00;99.90
26063;DHT22;13837;48.562;12.108;2022-10-10T21:38:21;9.90;99.90
26063;DHT22;13837;48.562;12.108;2022-10-10T21:40:47;10.00;99.90
26063;DHT22;13837;48.562;12.108;2022-10-10T21:43:13;9.90;99.90
26063;DHT22;13837;48.562;12.108;2022-10-10T21:45:40;10.00;99.90
26063;DHT22;13837;48.562;12.108;2022-10-10T21:48:08;10.00;99.90
26063;DHT22;13837;48.562;12.108;2022-10-10T21:50:35;9.90;99.90
26063;DHT22;13837;48.562;12.108;2022-10-10T21:53:02;9.90;99.90
26063;DHT22;13837;48.562;12.108;2022-10-10T21:55:28;9.80;99.90
26063;DHT22;13837;48.562;12.108;2022-10-10T21:57:53;9.70;99.90
26063;DHT22;13837;48.562;12.108;2022-10-10T22:00:19;9.60;99.90
26063;DHT22;13837;48.562;12.108;2022-10-10T22:02:45;9.60;99.90
26063;DHT22;13837;48.562;12.108;2022-10-10T22:05:12;9.50;99.90
26063;DHT22;13837;48.562;12.108;2022-10-10T22:07:39;9.50;99.90
26063;DHT22;13837;48.562;12.108;2022-10-10T22:10:06;9.50;99.90
26063;DHT22;13837;48.562;12.108;2022-10-10T22:12:33;9.40;99.90
26063;DHT22;13837;48.562;12.108;2022-10-10T22:14:58;9.40;99.90
26063;DHT22;13837;48.562;12.108;2022-10-10T22:17:24;9.40;99.90
26063;DHT22;13837;48.562;12.108;2022-10-10T22:19:50;9.30;99.90
26063;DHT22;13837;48.562;12.108;2022-10-10T22:22:17;9.30;99.90
26063;DHT22;13837;48.562;12.108;2022-10-10T22:24:43;9.30;99.90
26063;DHT22;13837;48.562;12.108;2022-10-10T22:27:09;9.40;99.90
26063;DHT22;13837;48.562;12.108;2022-10-10T22:29:35;9.40;99.90
26063;DHT22;13837;48.562;12.108;2022-10-10T22:32:00;9.40;99.90
26063;DHT22;13837;48.562;12.108;2022-10-10T22:34:26;9.40;99.90
26063;DHT22;13837;48.562;12.108;2022-10-10T22:36:52;9.40;99.90
26063;DHT22;13837;48.562;12.108;2022-10-10T22:39:18;9.30;99.90
26063;DHT22;13837;48.562;12.108;2022-10-10T22:41:44;9.30;99.90
26063;DHT22;13837;48.562;12.108;2022-10-10T22:44:10;9.30;99.90
26063;DHT22;13837;48.562;12.108;2022-10-10T22:46:36;9.20;99.90
26063;DHT22;13837;48.562;12.108;2022-10-10T22:49:02;9.20;99.90
26063;DHT22;13837;48.562;12.108;2022-10-10T22:51:28;9.20;99.90
26063;DHT22;13837;48.562;12.108;2022-10-10T22:53:54;9.20;99.90
26063;DHT22;13837;48.562;12.108;2022-10-10T22:56:20;9.20;99.90
26063;DHT22;13837;48.562;12.108;2022-10-10T22:58:47;9.20;99.90
26063;DHT22;13837;48.562;12.108;2022-10-10T23:01:22;9.10;99.90
26063;DHT22;13837;48.562;12.108;2022-10-10T23:03:48;9.00;99.90
26063;DHT22;13837;48.562;12.108;2022-10-10T23:06:14;9.00;99.90
26063;DHT22;13837;48.562;12.108;2022-10-10T23:08:40;9.00;99.90
26063;DHT22;13837;48.562;12.108;2022-10-10T23:11:06;8.90;99.90
26063;DHT22;13837;48.562;12.108;2022-10-10T23:13:32;8.90;99.90
26063;DHT22;13837;48.562;12.108;2022-10-10T23:15:58;8.80;99.90
26063;DHT22;13837;48.562;12.108;2022-10-10T23:18:23;8.80;99.90
26063;DHT22;13837;48.562;12.108;2022-10-10T23:20:49;8.80;99.90
26063;DHT22;13837;48.562;12.108;2022-10-10T23:23:16;8.70;99.90
26063;DHT22;13837;48.562;12.108;2022-10-10T23:25:44;8.70;99.90
26063;DHT22;13837;48.562;12.108;2022-10-10T23:28:11;8.70;99.90
26063;DHT22;13837;48.562;12.108;2022-10-10T23:30:38;8.70;99.90
26063;DHT22;13837;48.562;12.108;2022-10-10T23:33:05;8.60;99.90
26063;DHT22;13837;48.562;12.108;2022-10-10T23:35:31;8.60;99.90
26063;DHT22;13837;48.562;12.108;2022-10-10T23:37:56;8.60;99.90
26063;DHT22;13837;48.562;12.108;2022-10-10T23:40:22;8.50;99.90
26063;DHT22;13837;48.562;12.108;2022-10-10T23:42:48;8.50;99.90
26063;DHT22;13837;48.562;12.108;2022-10-10T23:45:14;8.50;99.90
26063;DHT22;13837;48.562;12.108;2022-10-10T23:47:40;8.40;99.90
26063;DHT22;13837;48.562;12.108;2022-10-10T23:50:06;8.50;99.90
26063;DHT22;13837;48.562;12.108;2022-10-10T23:52:32;8.50;99.90
26063;DHT22;13837;48.562;12.108;2022-10-10T23:54:58;8.60;99.90
26063;DHT22;13837;48.562;12.108;2022-10-10T23:57:23;8.60;99.90
26063;DHT22;13837;48.562;12.108;2022-10-10T23:59:49;8.50;99.90
